Time;durP1;ratioP1;P1;durP2;ratioP2;P2;SDS_P1;SDS_P2;PMS_P1;PMS_P2;Temp;Humidity;BMP_temperature;BMP_pressure;BME280_temperature;BME280_humidity;BME280_pressure;Samples;Min_cycle;Max_cycle;Signal;HPM_P1;HPM_P2
2022/03/29 00:00:19;;;;;;;;;;;;;;;;;;1048531;28;2996;-68
2022/03/29 00:01:06;;;;;;;;;;;;;;;;;;1048712;28;5199;-69
2022/03/29 00:01:37;;;;;;;;;;;;;;;;;;1049813;28;3808;-69
2022/03/29 00:02:07;;;;;;;;;;;;;;;;;;1048693;28;1999;-70
2022/03/29 00:02:38;;;;;;;;;;;;;;;;;;1050838;28;3770;-69
2022/03/29 00:03:09;;;;;;;;;;;;;;;;;;1052933;28;2632;-69
2022/03/29 00:03:39;;;;;;;;;;;;;;;;;;1053428;28;3794;-70
2022/03/29 00:04:09;;;;;;;;;;;;;;;;;;1050013;28;2118;-71
2022/03/29 00:04:40;;;;;;;;;;;;;;;;;;1047678;28;3781;-70
2022/03/29 00:05:10;;;;;;;;;;;;;;;;;;1050171;28;2298;-71
2022/03/29 00:05:40;;;;;;;;;;;;;;;;;;1049060;28;3861;-70
2022/03/29 00:06:11;;;;;;;;;;;;;;;;;;1048945;28;2744;-69
2022/03/29 00:06:41;;;;;;;;;;;;;;;;;;1044456;28;3861;-70
2022/03/29 00:07:11;;;;;;;;;;;;;;;;;;1044980;28;2439;-73
2022/03/29 00:07:41;;;;;;;;;;;;;;;;;;1038793;28;3815;-68
2022/03/29 00:08:12;;;;;;;;;;;;;;;;;;1045614;28;1795;-72
2022/03/29 00:08:42;;;;;;;;;;;;;;;;;;1047939;28;3836;-71
2022/03/29 00:09:12;;;;;;;;;;;;;;;;;;1049110;28;1664;-70
2022/03/29 00:09:42;;;;;;;;;;;;;;;;;;1053100;28;3872;-68
2022/03/29 00:10:13;;;;;;;;;;;;;;;;;;1052373;28;2640;-71
2022/03/29 00:10:44;;;;;;;;;;;;;;;;;;1051265;28;3833;-69
2022/03/29 00:11:17;;;;;;;;;;;;;;;;;;1053436;28;1714;-70
2022/03/29 00:11:47;;;;;;;;;;;;;;;;;;1050972;28;4226;-71
2022/03/29 00:12:17;;;;;;;;;;;;;;;;;;1049933;28;2247;-70
2022/03/29 00:12:50;;;;;;;;;;;;;;;;;;1045287;28;3853;-69
2022/03/29 00:13:20;;;;;;;;;;;;;;;;;;1046161;28;2052;-69
2022/03/29 00:13:51;;;;;;;;;;;;;;;;;;1049299;28;3790;-71
2022/03/29 00:14:21;;;;;;;;;;;;;;;;;;1045337;28;2126;-68
2022/03/29 00:14:51;;;;;;;;;;;;;;;;;;1048671;28;3798;-68
2022/03/29 00:15:22;;;;;;;;;;;;;;;;;;1050257;28;1834;-70
2022/03/29 00:15:52;;;;;;;;;;;;;;;;;;1051354;28;3844;-68
2022/03/29 00:16:41;;;;;;;;;;;;;;;;;;1052420;28;4001;-69
2022/03/29 00:17:30;;;;;;;;;;;;;;;;;;1052648;28;1880;-70
2022/03/29 00:18:19;;;;;;;;;;;;;;;;;;1053749;28;4104;-71
2022/03/29 00:18:52;;;;;;;;;;;;;;;;;;1052942;28;4043;-71
2022/03/29 00:19:23;;;;;;;;;;;;;;;;;;1052557;28;2940;-71
2022/03/29 00:19:53;;;;;;;;;;;;;;;;;;1053027;28;3781;-72
2022/03/29 00:20:24;;;;;;;;;;;;;;;;;;1049681;28;2096;-71
2022/03/29 00:20:54;;;;;;;;;;;;;;;;;;1048857;28;3828;-67
2022/03/29 00:21:24;;;;;;;;;;;;;;;;;;1049647;28;1631;-71
2022/03/29 00:21:54;;;;;;;;;;;;;;;;;;1043000;28;3830;-71
2022/03/29 00:22:25;;;;;;;;;;;;;;;;;;1048904;28;2508;-70
2022/03/29 00:22:55;;;;;;;;;;;;;;;;;;1047672;28;3796;-67
2022/03/29 00:23:25;;;;;;;;;;;;;;;;;;1048007;28;2026;-70
2022/03/29 00:23:56;;;;;;;;;;;;;;;;;;1054053;28;3876;-69
2022/03/29 00:24:26;;;;;;;;;;;;;;;;;;1052431;28;2184;-70
2022/03/29 00:24:56;;;;;;;;;;;;;;;;;;1052415;28;3834;-71
2022/03/29 00:25:26;;;;;;;;;;;;;;;;;;1053157;28;1969;-70
2022/03/29 00:25:57;;;;;;;;;;;;;;;;;;1043934;28;3796;-70
2022/03/29 00:26:27;;;;;;;;;;;;;;;;;;1043660;28;2133;-70
2022/03/29 00:26:58;;;;;;;;;;;;;;;;;;1041345;28;3879;-68
2022/03/29 00:27:29;;;;;;;;;;;;;;;;;;1041124;28;2365;-67
2022/03/29 00:27:59;;;;;;;;;;;;;;;;;;1047146;28;3797;-72
2022/03/29 00:28:29;;;;;;;;;;;;;;;;;;1051854;28;3109;-71
2022/03/29 00:29:00;;;;;;;;;;;;;;;;;;1052278;28;3889;-70
2022/03/29 00:29:30;;;;;;;;;;;;;;;;;;1053302;28;2465;-71
2022/03/29 00:30:01;;;;;;;;;;;;;;;;;;1052436;28;4680;-68
2022/03/29 00:30:38;;;;;;;;;;;;;;;;;;1053198;28;3774;-71
2022/03/29 00:31:09;;;;;;;;;;;;;;;;;;1052790;28;2291;-69
2022/03/29 00:31:40;;;;;;;;;;;;;;;;;;1048071;28;3815;-68
2022/03/29 00:32:10;;;;;;;;;;;;;;;;;;1049367;28;2429;-71
2022/03/29 00:32:40;;;;;;;;;;;;;;;;;;1049855;28;3888;-71
2022/03/29 00:33:10;;;;;;;;;;;;;;;;;;1050015;28;1636;-71
2022/03/29 00:33:41;;;;;;;;;;;;;;;;;;1053450;28;3947;-70
2022/03/29 00:34:11;;;;;;;;;;;;;;;;;;1053155;28;2339;-71
2022/03/29 00:34:42;;;;;;;;;;;;;;;;;;1045105;28;3809;-72
2022/03/29 00:35:12;;;;;;;;;;;;;;;;;;1046818;28;1770;-68
2022/03/29 00:35:43;;;;;;;;;;;;;;;;;;1045276;28;3829;-69
2022/03/29 00:36:13;;;;;;;;;;;;;;;;;;1042979;28;2388;-70
2022/03/29 00:36:44;;;;;;;;;;;;;;;;;;1047931;28;3788;-72
2022/03/29 00:37:14;;;;;;;;;;;;;;;;;;1049423;28;2077;-68
2022/03/29 00:37:45;;;;;;;;;;;;;;;;;;1049470;28;3808;-70
2022/03/29 00:38:15;;;;;;;;;;;;;;;;;;1052750;28;2878;-71
2022/03/29 00:38:46;;;;;;;;;;;;;;;;;;1052337;28;3856;-68
2022/03/29 00:39:17;;;;;;;;;;;;;;;;;;1053207;28;1959;-68
2022/03/29 00:39:47;;;;;;;;;;;;;;;;;;1053986;28;3989;-69
2022/03/29 00:40:19;;;;;;;;;;;;;;;;;;1053143;28;2078;-69
2022/03/29 00:40:49;;;;;;;;;;;;;;;;;;1047494;28;3806;-71
2022/03/29 00:41:19;;;;;;;;;;;;;;;;;;1049173;28;1328;-69
2022/03/29 00:41:50;;;;;;;;;;;;;;;;;;1048430;28;5163;-70
2022/03/29 00:42:21;;;;;;;;;;;;;;;;;;1045102;28;2129;-69
2022/03/29 00:42:51;;;;;;;;;;;;;;;;;;1049798;28;3798;-69
2022/03/29 00:43:21;;;;;;;;;;;;;;;;;;1049690;28;2122;-69
2022/03/29 00:43:52;;;;;;;;;;;;;;;;;;1048240;28;3820;-70
2022/03/29 00:44:28;;;;;;;;;;;;;;;;;;1044158;28;2037;-70
2022/03/29 00:44:58;;;;;;;;;;;;;;;;;;1045253;28;3796;-70
2022/03/29 00:45:29;;;;;;;;;;;;;;;;;;1049682;28;2276;-69
2022/03/29 00:45:59;;;;;;;;;;;;;;;;;;1050839;28;3886;-71
2022/03/29 00:46:29;;;;;;;;;;;;;;;;;;1053101;28;2495;-70
2022/03/29 00:47:00;;;;;;;;;;;;;;;;;;1052847;28;3822;-71
2022/03/29 00:47:31;;;;;;;;;;;;;;;;;;1049286;28;1681;-69
2022/03/29 00:48:02;;;;;;;;;;;;;;;;;;1048167;28;4690;-69
2022/03/29 00:48:39;;;;;;;;;;;;;;;;;;1047308;28;3008;-69
2022/03/29 00:49:16;;;;;;;;;;;;;;;;;;1048773;28;4933;-70
2022/03/29 00:49:53;;;;;;;;;;;;;;;;;;1047214;28;3808;-69
2022/03/29 00:50:23;;;;;;;;;;;;;;;;;;1048381;28;2147;-70
2022/03/29 00:50:54;;;;;;;;;;;;;;;;;;1049088;28;3856;-70
2022/03/29 00:51:24;;;;;;;;;;;;;;;;;;1049792;28;1960;-69
2022/03/29 00:51:58;;;;;;;;;;;;;;;;;;1049606;28;3788;-70
2022/03/29 00:52:28;;;;;;;;;;;;;;;;;;1049576;28;1811;-69
2022/03/29 00:52:58;;;;;;;;;;;;;;;;;;1048365;28;3794;-69
2022/03/29 00:53:29;;;;;;;;;;;;;;;;;;1049036;28;1425;-72
2022/03/29 00:53:59;;;;;;;;;;;;;;;;;;1048594;28;3792;-69
2022/03/29 00:54:30;;;;;;;;;;;;;;;;;;1043720;28;2024;-70
2022/03/29 00:55:00;;;;;;;;;;;;;;;;;;1048011;28;3930;-71
2022/03/29 00:55:31;;;;;;;;;;;;;;;;;;1047565;28;3133;-70
2022/03/29 00:56:02;;;;;;;;;;;;;;;;;;1047023;28;3772;-70
2022/03/29 00:56:33;;;;;;;;;;;;;;;;;;1049585;28;1894;-70
2022/03/29 00:57:04;;;;;;;;;;;;;;;;;;1047922;28;3573;-69
2022/03/29 00:57:35;;;;;;;;;;;;;;;;;;1048486;28;3845;-69
2022/03/29 00:58:08;;;;;;;;;;;;;;;;;;1049200;28;2490;-69
2022/03/29 00:58:38;;;;;;;;;;;;;;;;;;1046593;28;3859;-70
2022/03/29 00:59:09;;;;;;;;;;;;;;;;;;1049378;28;2412;-69
2022/03/29 00:59:42;;;;;;;;;;;;;;;;;;1049129;28;3809;-69
2022/03/29 01:00:16;;;;;;;;;;;;;;;;;;1048842;28;2515;-68
2022/03/29 01:00:47;;;;;;;;;;;;;;;;;;1048503;28;3849;-69
2022/03/29 01:01:17;;;;;;;;;;;;;;;;;;1049629;28;2065;-71
2022/03/29 01:01:48;;;;;;;;;;;;;;;;;;1047410;28;3803;-69
2022/03/29 01:02:18;;;;;;;;;;;;;;;;;;1049187;28;1793;-69
2022/03/29 01:02:48;;;;;;;;;;;;;;;;;;1047536;28;3787;-69
2022/03/29 01:03:19;;;;;;;;;;;;;;;;;;1048972;28;1925;-69
2022/03/29 01:03:49;;;;;;;;;;;;;;;;;;1047292;28;3965;-70
2022/03/29 01:04:21;;;;;;;;;;;;;;;;;;1049493;28;2229;-69
2022/03/29 01:04:51;;;;;;;;;;;;;;;;;;1046150;28;3819;-68
2022/03/29 01:05:21;;;;;;;;;;;;;;;;;;1049129;28;1816;-69
2022/03/29 01:05:51;;;;;;;;;;;;;;;;;;1049593;28;3785;-70
2022/03/29 01:06:22;;;;;;;;;;;;;;;;;;1048914;28;2258;-70
2022/03/29 01:06:53;;;;;;;;;;;;;;;;;;1048117;28;3794;-70
2022/03/29 01:07:24;;;;;;;;;;;;;;;;;;1049442;28;2160;-70
2022/03/29 01:07:55;;;;;;;;;;;;;;;;;;1047301;28;3853;-71
2022/03/29 01:08:27;;;;;;;;;;;;;;;;;;1048436;28;2385;-71
2022/03/29 01:08:58;;;;;;;;;;;;;;;;;;1048447;28;4708;-69
2022/03/29 01:09:29;;;;;;;;;;;;;;;;;;1049442;28;2600;-72
2022/03/29 01:10:01;;;;;;;;;;;;;;;;;;1049580;28;3750;-70
2022/03/29 01:10:31;;;;;;;;;;;;;;;;;;1049302;28;2431;-71
2022/03/29 01:11:02;;;;;;;;;;;;;;;;;;1047877;28;3736;-68
2022/03/29 01:11:32;;;;;;;;;;;;;;;;;;1049037;28;3318;-71
2022/03/29 01:12:03;;;;;;;;;;;;;;;;;;1048890;28;4643;-71
2022/03/29 01:12:34;;;;;;;;;;;;;;;;;;1049198;28;2490;-71
2022/03/29 01:13:05;;;;;;;;;;;;;;;;;;1051903;28;3604;-68
2022/03/29 01:13:35;;;;;;;;;;;;;;;;;;1052635;28;3789;-71
2022/03/29 01:14:05;;;;;;;;;;;;;;;;;;1048875;28;2348;-69
2022/03/29 01:14:37;;;;;;;;;;;;;;;;;;1048100;28;4741;-70
2022/03/29 01:15:10;;;;;;;;;;;;;;;;;;1049823;28;2357;-69
2022/03/29 01:15:40;;;;;;;;;;;;;;;;;;1048470;28;3778;-69
2022/03/29 01:17:57;;;;;;;;;;;;;;;;;;1048064;28;3885;-71
2022/03/29 01:18:28;;;;;;;;;;;;;;;;;;1048723;28;2144;-69
2022/03/29 01:18:58;;;;;;;;;;;;;;;;;;1048964;28;3767;-70
2022/03/29 01:19:29;;;;;;;;;;;;;;;;;;1049983;28;2026;-70
2022/03/29 01:20:00;;;;;;;;;;;;;;;;;;1047573;28;3785;-69
2022/03/29 01:20:31;;;;;;;;;;;;;;;;;;1049835;28;2021;-69
2022/03/29 01:21:04;;;;;;;;;;;;;;;;;;1049311;28;3848;-71
2022/03/29 01:21:35;;;;;;;;;;;;;;;;;;1048854;28;3803;-70
2022/03/29 01:22:07;;;;;;;;;;;;;;;;;;1048476;28;2341;-70
2022/03/29 01:22:42;;;;;;;;;;;;;;;;;;1048731;28;3822;-71
2022/03/29 01:23:12;;;;;;;;;;;;;;;;;;1048044;28;2209;-71
2022/03/29 01:23:43;;;;;;;;;;;;;;;;;;1051796;28;3885;-70
2022/03/29 01:24:14;;;;;;;;;;;;;;;;;;1053313;28;1943;-70
2022/03/29 01:24:46;;;;;;;;;;;;;;;;;;1048787;28;3794;-70
2022/03/29 01:25:20;;;;;;;;;;;;;;;;;;1045390;28;2431;-70
2022/03/29 01:25:51;;;;;;;;;;;;;;;;;;1044044;28;3867;-70
2022/03/29 01:26:22;;;;;;;;;;;;;;;;;;1045638;28;2237;-68
2022/03/29 01:26:52;;;;;;;;;;;;;;;;;;1047623;28;3763;-70
2022/03/29 01:27:23;;;;;;;;;;;;;;;;;;1049427;28;2274;-69
2022/03/29 01:27:54;;;;;;;;;;;;;;;;;;1048941;28;3772;-70
2022/03/29 01:28:24;;;;;;;;;;;;;;;;;;1048321;28;2116;-70
2022/03/29 01:28:55;;;;;;;;;;;;;;;;;;1048201;28;3927;-73
2022/03/29 01:29:26;;;;;;;;;;;;;;;;;;1049657;28;1655;-69
2022/03/29 01:29:58;;;;;;;;;;;;;;;;;;1048917;28;3923;-68
2022/03/29 01:30:29;;;;;;;;;;;;;;;;;;1049354;28;2701;-71
2022/03/29 01:30:59;;;;;;;;;;;;;;;;;;1049396;28;3768;-69
2022/03/29 01:31:31;;;;;;;;;;;;;;;;;;1051102;28;1658;-69
2022/03/29 01:32:02;;;;;;;;;;;;;;;;;;1047119;28;3800;-71
2022/03/29 01:32:33;;;;;;;;;;;;;;;;;;1049621;28;2010;-71
2022/03/29 01:33:06;;;;;;;;;;;;;;;;;;1048367;28;3735;-70
2022/03/29 01:33:37;;;;;;;;;;;;;;;;;;1048812;28;3783;-71
2022/03/29 01:34:07;;;;;;;;;;;;;;;;;;1049746;28;2199;-71
2022/03/29 01:34:40;;;;;;;;;;;;;;;;;;1048439;28;3782;-71
2022/03/29 01:35:11;;;;;;;;;;;;;;;;;;1048747;28;1888;-70
2022/03/29 01:35:43;;;;;;;;;;;;;;;;;;1049311;28;3783;-69
2022/03/29 01:36:13;;;;;;;;;;;;;;;;;;1048580;28;2029;-70
2022/03/29 01:36:43;;;;;;;;;;;;;;;;;;1048479;28;3808;-72
2022/03/29 01:37:14;;;;;;;;;;;;;;;;;;1049676;28;2351;-71
2022/03/29 01:37:44;;;;;;;;;;;;;;;;;;1049477;28;3809;-72
2022/03/29 01:38:14;;;;;;;;;;;;;;;;;;1048278;28;2450;-71
2022/03/29 01:38:45;;;;;;;;;;;;;;;;;;1048992;28;3856;-71
2022/03/29 01:39:16;;;;;;;;;;;;;;;;;;1048191;28;2423;-71
2022/03/29 01:39:46;;;;;;;;;;;;;;;;;;1048986;28;4008;-69
2022/03/29 01:40:18;;;;;;;;;;;;;;;;;;1044781;28;1689;-71
2022/03/29 01:40:48;;;;;;;;;;;;;;;;;;1043712;28;3795;-68
2022/03/29 01:41:19;;;;;;;;;;;;;;;;;;1043894;28;1917;-71
2022/03/29 01:41:49;;;;;;;;;;;;;;;;;;1045588;28;4028;-70
2022/03/29 01:42:27;;;;;;;;;;;;;;;;;;1049151;28;1615;-68
2022/03/29 01:42:59;;;;;;;;;;;;;;;;;;1049871;28;3854;-69
2022/03/29 01:43:29;;;;;;;;;;;;;;;;;;1049693;28;2953;-71
2022/03/29 01:43:59;;;;;;;;;;;;;;;;;;1048976;28;3773;-73
2022/03/29 01:44:30;;;;;;;;;;;;;;;;;;1048843;28;1392;-70
2022/03/29 01:45:00;;;;;;;;;;;;;;;;;;1047592;28;3748;-69
2022/03/29 01:45:31;;;;;;;;;;;;;;;;;;1048840;28;2152;-70
2022/03/29 01:46:02;;;;;;;;;;;;;;;;;;1048039;28;3765;-70
2022/03/29 01:46:32;;;;;;;;;;;;;;;;;;1049718;28;1844;-71
2022/03/29 01:47:03;;;;;;;;;;;;;;;;;;1047779;28;3748;-71
2022/03/29 01:47:33;;;;;;;;;;;;;;;;;;1047566;28;2363;-69
2022/03/29 01:48:03;;;;;;;;;;;;;;;;;;1049372;28;3791;-69
2022/03/29 01:48:39;;;;;;;;;;;;;;;;;;1048305;28;2501;-71
2022/03/29 01:49:17;;;;;;;;;;;;;;;;;;1049567;28;3862;-72
2022/03/29 01:49:54;;;;;;;;;;;;;;;;;;1047323;28;3787;-69
2022/03/29 01:50:24;;;;;;;;;;;;;;;;;;1048688;28;2674;-69
2022/03/29 01:50:54;;;;;;;;;;;;;;;;;;1049122;28;3801;-68
2022/03/29 01:51:25;;;;;;;;;;;;;;;;;;1049591;28;2447;-69
2022/03/29 01:51:56;;;;;;;;;;;;;;;;;;1048147;28;3963;-70
2022/03/29 01:52:26;;;;;;;;;;;;;;;;;;1048661;28;2323;-69
2022/03/29 01:52:56;;;;;;;;;;;;;;;;;;1048254;28;3808;-68
2022/03/29 01:53:28;;;;;;;;;;;;;;;;;;1049580;28;2606;-68
2022/03/29 01:54:00;;;;;;;;;;;;;;;;;;1048301;28;3791;-70
2022/03/29 01:54:31;;;;;;;;;;;;;;;;;;1053094;28;2841;-69
2022/03/29 01:55:01;;;;;;;;;;;;;;;;;;1051078;28;3789;-71
2022/03/29 01:55:31;;;;;;;;;;;;;;;;;;1048210;28;2476;-69
2022/03/29 01:56:02;;;;;;;;;;;;;;;;;;1047708;28;3759;-69
2022/03/29 01:56:34;;;;;;;;;;;;;;;;;;1044927;28;2001;-70
2022/03/29 01:57:04;;;;;;;;;;;;;;;;;;1041604;28;3789;-70
2022/03/29 01:57:35;;;;;;;;;;;;;;;;;;1045814;28;3801;-70
2022/03/29 01:58:05;;;;;;;;;;;;;;;;;;1044643;28;2127;-69
2022/03/29 01:58:35;;;;;;;;;;;;;;;;;;1043221;28;3834;-69
2022/03/29 01:59:11;;;;;;;;;;;;;;;;;;1048510;28;2344;-72
2022/03/29 02:00:39;;;;;;;;;;;;;;;;;;1047962;28;3818;-72
2022/03/29 02:01:09;;;;;;;;;;;;;;;;;;1048890;28;2042;-69
2022/03/29 02:01:43;;;;;;;;;;;;;;;;;;1047275;28;3794;-69
2022/03/29 02:02:13;;;;;;;;;;;;;;;;;;1049202;28;1803;-69
2022/03/29 02:02:44;;;;;;;;;;;;;;;;;;1048420;28;3794;-71
2022/03/29 02:03:14;;;;;;;;;;;;;;;;;;1047300;28;2138;-69
2022/03/29 02:03:44;;;;;;;;;;;;;;;;;;1048121;28;3789;-69
2022/03/29 02:04:15;;;;;;;;;;;;;;;;;;1049455;28;2026;-69
2022/03/29 02:04:45;;;;;;;;;;;;;;;;;;1047909;28;4277;-69
2022/03/29 02:05:17;;;;;;;;;;;;;;;;;;1048558;28;2225;-72
2022/03/29 02:05:48;;;;;;;;;;;;;;;;;;1048673;28;3917;-69
2022/03/29 02:06:19;;;;;;;;;;;;;;;;;;1050085;28;1696;-71
2022/03/29 02:06:49;;;;;;;;;;;;;;;;;;1048500;28;3814;-70
2022/03/29 02:07:19;;;;;;;;;;;;;;;;;;1049481;28;1804;-69
2022/03/29 02:07:52;;;;;;;;;;;;;;;;;;1047347;28;3779;-69
2022/03/29 02:08:23;;;;;;;;;;;;;;;;;;1047694;28;2677;-68
2022/03/29 02:08:53;;;;;;;;;;;;;;;;;;1048678;28;3807;-71
2022/03/29 02:09:23;;;;;;;;;;;;;;;;;;1049095;28;2249;-70
2022/03/29 02:09:53;;;;;;;;;;;;;;;;;;1049457;28;3878;-72
2022/03/29 02:10:24;;;;;;;;;;;;;;;;;;1049576;28;1870;-69
2022/03/29 02:10:54;;;;;;;;;;;;;;;;;;1047690;28;3785;-70
2022/03/29 02:11:24;;;;;;;;;;;;;;;;;;1049801;28;1953;-69
2022/03/29 02:11:55;;;;;;;;;;;;;;;;;;1048031;28;3812;-70
2022/03/29 02:12:25;;;;;;;;;;;;;;;;;;1049617;28;1642;-68
2022/03/29 02:12:56;;;;;;;;;;;;;;;;;;1049311;28;3766;-70
2022/03/29 02:13:26;;;;;;;;;;;;;;;;;;1050023;28;1503;-68
2022/03/29 02:13:56;;;;;;;;;;;;;;;;;;1049035;28;3905;-71
2022/03/29 02:14:27;;;;;;;;;;;;;;;;;;1047575;28;2117;-71
2022/03/29 02:14:57;;;;;;;;;;;;;;;;;;1048863;28;3805;-70
2022/03/29 02:15:27;;;;;;;;;;;;;;;;;;1048312;28;2113;-69
2022/03/29 02:15:57;;;;;;;;;;;;;;;;;;1046999;28;3809;-72
2022/03/29 02:16:28;;;;;;;;;;;;;;;;;;1048814;28;2326;-69
2022/03/29 02:16:59;;;;;;;;;;;;;;;;;;1046898;28;3789;-70
2022/03/29 02:17:29;;;;;;;;;;;;;;;;;;1049264;28;1989;-70
2022/03/29 02:17:59;;;;;;;;;;;;;;;;;;1047764;28;3789;-68
2022/03/29 02:18:30;;;;;;;;;;;;;;;;;;1047945;28;2308;-70
2022/03/29 02:19:00;;;;;;;;;;;;;;;;;;1047695;28;4022;-70
2022/03/29 02:19:37;;;;;;;;;;;;;;;;;;1048619;28;2717;-71
2022/03/29 02:20:07;;;;;;;;;;;;;;;;;;1046838;28;3650;-70
2022/03/29 02:20:43;;;;;;;;;;;;;;;;;;1048762;28;3810;-70
2022/03/29 02:21:14;;;;;;;;;;;;;;;;;;1046597;28;2427;-67
2022/03/29 02:21:45;;;;;;;;;;;;;;;;;;1047091;28;3802;-68
2022/03/29 02:22:15;;;;;;;;;;;;;;;;;;1047897;28;2200;-70
2022/03/29 02:22:45;;;;;;;;;;;;;;;;;;1047976;28;3801;-69
2022/03/29 02:23:16;;;;;;;;;;;;;;;;;;1047692;28;2151;-70
2022/03/29 02:23:46;;;;;;;;;;;;;;;;;;1048135;28;3855;-70
2022/03/29 02:24:16;;;;;;;;;;;;;;;;;;1048752;28;2323;-70
2022/03/29 02:24:46;;;;;;;;;;;;;;;;;;1049116;28;3785;-69
2022/03/29 02:25:17;;;;;;;;;;;;;;;;;;1049514;28;1796;-70
2022/03/29 02:25:47;;;;;;;;;;;;;;;;;;1047934;28;3781;-71
2022/03/29 02:26:18;;;;;;;;;;;;;;;;;;1049145;28;2413;-71
2022/03/29 02:26:48;;;;;;;;;;;;;;;;;;1046560;28;3801;-69
2022/03/29 02:27:18;;;;;;;;;;;;;;;;;;1050539;28;2049;-71
2022/03/29 02:27:49;;;;;;;;;;;;;;;;;;1047350;28;3864;-70
2022/03/29 02:28:19;;;;;;;;;;;;;;;;;;1048476;28;2762;-69
2022/03/29 02:28:49;;;;;;;;;;;;;;;;;;1047202;28;3785;-70
2022/03/29 02:29:19;;;;;;;;;;;;;;;;;;1048492;28;1378;-70
2022/03/29 02:29:50;;;;;;;;;;;;;;;;;;1046920;28;3822;-70
2022/03/29 02:30:20;;;;;;;;;;;;;;;;;;1047938;28;2505;-71
2022/03/29 02:30:50;;;;;;;;;;;;;;;;;;1048366;28;3801;-69
2022/03/29 02:31:21;;;;;;;;;;;;;;;;;;1047132;28;2312;-69
2022/03/29 02:31:51;;;;;;;;;;;;;;;;;;1048477;28;3857;-70
2022/03/29 02:32:28;;;;;;;;;;;;;;;;;;1048860;28;2012;-69
2022/03/29 02:32:58;;;;;;;;;;;;;;;;;;1047836;28;3753;-70
2022/03/29 02:33:29;;;;;;;;;;;;;;;;;;1048944;28;2241;-70
2022/03/29 02:33:59;;;;;;;;;;;;;;;;;;1047942;28;3810;-72
2022/03/29 02:34:29;;;;;;;;;;;;;;;;;;1049672;28;2245;-69
2022/03/29 02:34:59;;;;;;;;;;;;;;;;;;1049724;28;3812;-72
2022/03/29 02:35:30;;;;;;;;;;;;;;;;;;1049020;28;2176;-70
2022/03/29 02:36:00;;;;;;;;;;;;;;;;;;1048630;28;3862;-71
2022/03/29 02:36:30;;;;;;;;;;;;;;;;;;1048069;28;2339;-71
2022/03/29 02:37:00;;;;;;;;;;;;;;;;;;1049686;28;3896;-70
2022/03/29 02:37:31;;;;;;;;;;;;;;;;;;1050118;28;2259;-69
2022/03/29 02:38:01;;;;;;;;;;;;;;;;;;1049689;28;3765;-67
2022/03/29 02:38:31;;;;;;;;;;;;;;;;;;1050041;28;1951;-70
2022/03/29 02:39:02;;;;;;;;;;;;;;;;;;1049063;28;3731;-71
2022/03/29 02:39:39;;;;;;;;;;;;;;;;;;1047723;28;3915;-70
2022/03/29 02:40:11;;;;;;;;;;;;;;;;;;1049581;28;2600;-69
2022/03/29 02:40:41;;;;;;;;;;;;;;;;;;1049009;28;3841;-69
2022/03/29 02:41:11;;;;;;;;;;;;;;;;;;1050151;28;2241;-70
2022/03/29 02:41:42;;;;;;;;;;;;;;;;;;1049243;28;3809;-68
2022/03/29 02:42:12;;;;;;;;;;;;;;;;;;1049126;28;1911;-69
2022/03/29 02:42:43;;;;;;;;;;;;;;;;;;1049665;28;3896;-71
2022/03/29 02:43:13;;;;;;;;;;;;;;;;;;1044716;28;2655;-70
2022/03/29 02:43:44;;;;;;;;;;;;;;;;;;1045217;28;3946;-70
2022/03/29 02:44:14;;;;;;;;;;;;;;;;;;1047340;28;2040;-70
2022/03/29 02:44:44;;;;;;;;;;;;;;;;;;1037059;28;3840;-69
2022/03/29 02:45:18;;;;;;;;;;;;;;;;;;1041406;28;2152;-70
2022/03/29 02:45:48;;;;;;;;;;;;;;;;;;1037998;28;3833;-69
2022/03/29 02:46:19;;;;;;;;;;;;;;;;;;1042405;28;2345;-71
2022/03/29 02:46:50;;;;;;;;;;;;;;;;;;1048889;28;3789;-71
2022/03/29 02:47:21;;;;;;;;;;;;;;;;;;1045797;28;2648;-69
2022/03/29 02:47:52;;;;;;;;;;;;;;;;;;1049961;28;3880;-72
2022/03/29 02:48:22;;;;;;;;;;;;;;;;;;1050047;28;2285;-68
2022/03/29 02:49:07;;;;;;;;;;;;;;;;;;1046757;28;3881;-71
2022/03/29 02:49:45;;;;;;;;;;;;;;;;;;1043627;28;3806;-72
2022/03/29 02:50:15;;;;;;;;;;;;;;;;;;1044502;28;2146;-69
2022/03/29 02:50:46;;;;;;;;;;;;;;;;;;1044236;28;3825;-70
2022/03/29 02:51:17;;;;;;;;;;;;;;;;;;1045999;28;2364;-68
2022/03/29 02:51:47;;;;;;;;;;;;;;;;;;1046130;28;3818;-70
2022/03/29 02:52:18;;;;;;;;;;;;;;;;;;1047534;28;2445;-68
2022/03/29 02:52:49;;;;;;;;;;;;;;;;;;1044898;28;3793;-70
2022/03/29 02:53:19;;;;;;;;;;;;;;;;;;1044563;28;1844;-68
2022/03/29 02:53:50;;;;;;;;;;;;;;;;;;1045283;28;3785;-70
2022/03/29 02:54:20;;;;;;;;;;;;;;;;;;1045202;28;2442;-69
2022/03/29 02:54:50;;;;;;;;;;;;;;;;;;1044632;28;3800;-70
2022/03/29 02:55:22;;;;;;;;;;;;;;;;;;1044702;28;2004;-68
2022/03/29 02:55:52;;;;;;;;;;;;;;;;;;1045316;28;3797;-70
2022/03/29 02:56:22;;;;;;;;;;;;;;;;;;1045506;28;1898;-70
2022/03/29 02:56:53;;;;;;;;;;;;;;;;;;1044611;28;3831;-69
2022/03/29 02:57:23;;;;;;;;;;;;;;;;;;1045204;28;2293;-69
2022/03/29 02:57:53;;;;;;;;;;;;;;;;;;1045222;28;3797;-70
2022/03/29 02:58:23;;;;;;;;;;;;;;;;;;1044135;28;2221;-69
2022/03/29 02:58:54;;;;;;;;;;;;;;;;;;1046571;28;3791;-70
2022/03/29 02:59:24;;;;;;;;;;;;;;;;;;1041147;28;2031;-71
2022/03/29 02:59:54;;;;;;;;;;;;;;;;;;1039743;28;4014;-72
2022/03/29 03:00:25;;;;;;;;;;;;;;;;;;1040796;28;1992;-69
2022/03/29 03:00:55;;;;;;;;;;;;;;;;;;1044647;28;3794;-71
2022/03/29 03:01:28;;;;;;;;;;;;;;;;;;1044997;28;1946;-69
2022/03/29 03:01:59;;;;;;;;;;;;;;;;;;1044750;28;3780;-70
2022/03/29 03:02:29;;;;;;;;;;;;;;;;;;1045997;28;1312;-70
2022/03/29 03:02:59;;;;;;;;;;;;;;;;;;1043578;28;3770;-69
2022/03/29 03:03:31;;;;;;;;;;;;;;;;;;1045570;28;1938;-69
2022/03/29 03:04:02;;;;;;;;;;;;;;;;;;1045134;28;3972;-69
2022/03/29 03:04:32;;;;;;;;;;;;;;;;;;1049941;28;2198;-69
2022/03/29 03:05:03;;;;;;;;;;;;;;;;;;1047082;28;3766;-70
2022/03/29 03:05:33;;;;;;;;;;;;;;;;;;1049000;28;2086;-70
2022/03/29 03:06:04;;;;;;;;;;;;;;;;;;1047921;28;3819;-70
2022/03/29 03:06:34;;;;;;;;;;;;;;;;;;1048544;28;3806;-69
2022/03/29 03:07:04;;;;;;;;;;;;;;;;;;1049220;28;2203;-69
2022/03/29 03:07:35;;;;;;;;;;;;;;;;;;1043111;28;3841;-69
2022/03/29 03:08:05;;;;;;;;;;;;;;;;;;1044404;28;2598;-71
2022/03/29 03:08:35;;;;;;;;;;;;;;;;;;1044568;28;3820;-70
2022/03/29 03:09:06;;;;;;;;;;;;;;;;;;1044627;28;1847;-70
2022/03/29 03:09:36;;;;;;;;;;;;;;;;;;1045779;28;3937;-69
2022/03/29 03:10:07;;;;;;;;;;;;;;;;;;1044185;28;2615;-68
2022/03/29 03:10:37;;;;;;;;;;;;;;;;;;1041584;28;3992;-70
2022/03/29 03:11:07;;;;;;;;;;;;;;;;;;1045933;28;1697;-69
2022/03/29 03:11:37;;;;;;;;;;;;;;;;;;1046072;28;3815;-71
2022/03/29 03:12:08;;;;;;;;;;;;;;;;;;1045739;28;2651;-71
2022/03/29 03:12:39;;;;;;;;;;;;;;;;;;1044739;28;3813;-70
2022/03/29 03:13:09;;;;;;;;;;;;;;;;;;1046023;28;1906;-68
2022/03/29 03:13:40;;;;;;;;;;;;;;;;;;1044604;28;3911;-69
2022/03/29 03:14:11;;;;;;;;;;;;;;;;;;1045223;28;2073;-69
2022/03/29 03:14:42;;;;;;;;;;;;;;;;;;1045607;28;3835;-70
2022/03/29 03:15:14;;;;;;;;;;;;;;;;;;1044472;28;2037;-70
2022/03/29 03:15:44;;;;;;;;;;;;;;;;;;1045832;28;4283;-69
2022/03/29 03:16:14;;;;;;;;;;;;;;;;;;1045241;28;2246;-69
2022/03/29 03:16:45;;;;;;;;;;;;;;;;;;1044673;28;3797;-70
2022/03/29 03:17:15;;;;;;;;;;;;;;;;;;1046366;28;2000;-70
2022/03/29 03:17:45;;;;;;;;;;;;;;;;;;1045165;28;3898;-69
2022/03/29 03:18:16;;;;;;;;;;;;;;;;;;1044818;28;2480;-69
2022/03/29 03:18:46;;;;;;;;;;;;;;;;;;1043741;28;3792;-70
2022/03/29 03:19:16;;;;;;;;;;;;;;;;;;1044159;28;2175;-70
2022/03/29 03:19:46;;;;;;;;;;;;;;;;;;1046144;28;3804;-70
2022/03/29 03:20:17;;;;;;;;;;;;;;;;;;1044839;28;2517;-68
2022/03/29 03:20:48;;;;;;;;;;;;;;;;;;1044445;28;3799;-69
2022/03/29 03:21:18;;;;;;;;;;;;;;;;;;1045146;28;2446;-70
2022/03/29 03:21:48;;;;;;;;;;;;;;;;;;1045272;28;3808;-70
2022/03/29 03:22:18;;;;;;;;;;;;;;;;;;1044520;28;2302;-69
2022/03/29 03:22:49;;;;;;;;;;;;;;;;;;1045109;28;3812;-70
2022/03/29 03:23:19;;;;;;;;;;;;;;;;;;1044751;28;1937;-70
2022/03/29 03:23:49;;;;;;;;;;;;;;;;;;1044289;28;3807;-71
2022/03/29 03:24:20;;;;;;;;;;;;;;;;;;1045593;28;2338;-70
2022/03/29 03:24:50;;;;;;;;;;;;;;;;;;1044584;28;3798;-71
2022/03/29 03:25:21;;;;;;;;;;;;;;;;;;1046389;28;2701;-69
2022/03/29 03:25:51;;;;;;;;;;;;;;;;;;1044592;28;3808;-71
2022/03/29 03:26:22;;;;;;;;;;;;;;;;;;1042491;28;2241;-70
2022/03/29 03:26:52;;;;;;;;;;;;;;;;;;1044088;28;3776;-69
2022/03/29 03:27:22;;;;;;;;;;;;;;;;;;1046125;28;2319;-69
2022/03/29 03:27:52;;;;;;;;;;;;;;;;;;1040072;28;3783;-70
2022/03/29 03:28:23;;;;;;;;;;;;;;;;;;1046552;28;1601;-70
2022/03/29 03:28:53;;;;;;;;;;;;;;;;;;1045127;28;3794;-71
2022/03/29 03:29:23;;;;;;;;;;;;;;;;;;1044679;28;2179;-68
2022/03/29 03:29:53;;;;;;;;;;;;;;;;;;1045163;28;3999;-70
2022/03/29 03:30:24;;;;;;;;;;;;;;;;;;1044530;28;2364;-70
2022/03/29 03:30:54;;;;;;;;;;;;;;;;;;1044980;28;3781;-70
2022/03/29 03:31:24;;;;;;;;;;;;;;;;;;1045280;28;2196;-72
2022/03/29 03:31:55;;;;;;;;;;;;;;;;;;1041569;28;3882;-70
2022/03/29 03:32:25;;;;;;;;;;;;;;;;;;1040743;28;2175;-70
2022/03/29 03:32:55;;;;;;;;;;;;;;;;;;1042344;28;3765;-70
2022/03/29 03:33:25;;;;;;;;;;;;;;;;;;1045600;28;1647;-70
2022/03/29 03:33:56;;;;;;;;;;;;;;;;;;1044188;28;3860;-69
2022/03/29 03:34:26;;;;;;;;;;;;;;;;;;1045382;28;2362;-69
2022/03/29 03:34:57;;;;;;;;;;;;;;;;;;1044726;28;3840;-69
2022/03/29 03:35:27;;;;;;;;;;;;;;;;;;1044526;28;2470;-70
2022/03/29 03:35:57;;;;;;;;;;;;;;;;;;1044645;28;3791;-71
2022/03/29 03:36:28;;;;;;;;;;;;;;;;;;1044760;28;2283;-70
2022/03/29 03:36:58;;;;;;;;;;;;;;;;;;1045617;28;3800;-70
2022/03/29 03:37:30;;;;;;;;;;;;;;;;;;1044370;28;1984;-69
2022/03/29 03:38:00;;;;;;;;;;;;;;;;;;1044486;28;3782;-70
2022/03/29 03:38:30;;;;;;;;;;;;;;;;;;1044601;28;2034;-69